createdAt,value
2023-10-05T04:32:52.694Z,0.373
2023-10-05T04:38:39.604Z,0.747
2023-10-05T04:41:29.595Z,1.494
2023-10-05T04:44:06.160Z,2.241
2023-10-05T04:46:49.394Z,3.735
2023-10-05T04:49:42.951Z,5.229
2023-10-05T04:52:31.290Z,7.843
2023-10-05T04:55:14.644Z,12.325
2023-10-05T04:57:47.714Z,18.675
2023-10-05T05:00:25.882Z,30.253
2023-10-05T05:03:24.540Z,50.049
2023-10-05T05:06:23.030Z,75.447
2023-10-05T05:09:52.259Z,121.761
2023-10-05T05:12:25.241Z,168.075
2023-10-05T05:15:13.634Z,245.016
2023-10-05T05:17:46.725Z,318.222
2023-10-05T05:20:24.817Z,418.32
2023-10-05T05:23:02.979Z,546.804
2023-10-05T05:25:36.019Z,666.324
2023-10-05T05:28:24.581Z,764.928
2023-10-05T05:31:33.277Z,782.856
2023-10-05T05:34:26.898Z,848.592
2023-10-05T05:37:49.320Z,962.136
2023-10-05T05:40:34.232Z,1219.104
2023-10-05T05:43:42.944Z,1422.288
2023-10-05T05:46:16.209Z,1452.168
2023-10-05T05:48:54.312Z,1565.712
2023-10-05T05:51:42.713Z,1589.616
2023-10-05T05:54:25.964Z,1673.28
2023-10-05T05:57:34.737Z,1924.272
2023-10-05T06:00:07.966Z,2055.744
2023-10-05T06:03:06.473Z,2127.456
2023-10-05T06:05:44.604Z,2246.976
2023-10-05T06:08:27.920Z,2354.544
2023-10-05T06:11:06.107Z,2557.728
2023-10-05T06:14:04.687Z,2713.104
2023-10-05T06:16:53.103Z,2820.672
2023-10-05T06:19:36.391Z,3047.76
2023-10-05T06:23:46.345Z,3657.312
2023-10-05T06:26:34.739Z,4350.528
2023-10-05T06:29:28.244Z,4470.048
2023-10-05T06:32:52.340Z,4039.776
2023-10-05T06:35:30.536Z,4254.912
2023-10-05T06:39:04.926Z,4254.912
2023-10-05T06:41:37.922Z,4685.184
2023-10-05T06:44:16.279Z,5378.4
2023-10-05T06:47:09.618Z,5569.632
2023-10-05T06:50:43.914Z,5689.152
2023-10-05T06:53:17.033Z,5904.288
2023-10-05T06:55:55.215Z,6047.712
2023-10-05T06:58:53.801Z,6406.272
2023-10-05T07:01:42.254Z,6740.928
2023-10-05T07:04:15.314Z,6645.312
2023-10-05T07:06:48.356Z,6167.232
2023-10-05T07:09:21.426Z,6023.808
2023-10-05T07:13:05.938Z,5474.016
2023-10-05T07:15:39.002Z,5665.248
2023-10-05T07:18:22.328Z,6454.08
2023-10-05T07:21:05.656Z,7601.472
2023-10-05T07:23:43.815Z,10230.912
2023-10-05T07:26:16.932Z,10422.144
2023-10-05T07:29:24.235Z,10230.912
2023-10-05T07:31:58.856Z,9609.408
2023-10-05T07:34:42.097Z,9705.024
2023-10-05T07:38:01.131Z,10230.912
2023-10-05T07:40:39.332Z,10087.488
2023-10-05T07:43:12.365Z,10135.296
2023-10-05T07:46:05.975Z,11999.808
2023-10-05T07:48:44.022Z,12908.16
2023-10-05T07:51:17.136Z,11569.536
2023-10-05T07:54:06.785Z,13386.24
2023-10-05T07:56:42.393Z,13003.776
2023-10-05T07:59:15.546Z,11856.384
2023-10-05T08:01:48.801Z,10804.608
2023-10-05T08:05:12.847Z,11760.768
2023-10-05T08:08:21.540Z,10183.104
2023-10-05T08:11:04.837Z,10374.336
2023-10-05T08:13:43.008Z,13959.936
2023-10-05T08:16:34.387Z,17975.808
2023-10-05T08:19:23.905Z,27728.64
2023-10-05T08:22:17.459Z,26772.48
2023-10-05T08:25:06.310Z,27154.944
2023-10-05T08:27:39.338Z,18453.888
2023-10-05T08:30:24.815Z,30405.888
2023-10-05T08:33:03.090Z,24190.848
2023-10-05T08:35:36.171Z,26772.48
2023-10-05T08:38:29.664Z,30788.352
2023-10-05T08:41:12.938Z,27346.176
2023-10-05T08:43:46.056Z,29832.192
2023-10-05T08:46:19.296Z,30788.352
2023-10-05T08:49:12.742Z,32318.208
2023-10-05T08:51:54.357Z,30788.352
2023-10-05T08:54:34.526Z,33274.368
2023-10-05T08:57:07.437Z,33656.832
2023-10-05T08:59:45.734Z,36334.08
2023-10-05T09:02:18.958Z,37290.24
2023-10-05T09:04:52.034Z,38055.168
2023-10-05T09:07:25.238Z,32700.672
2023-10-05T09:10:07.167Z,33848.064
2023-10-05T09:12:45.192Z,31170.816
2023-10-05T09:15:18.437Z,30979.584
2023-10-05T09:17:51.570Z,34230.528
2023-10-05T09:20:45.063Z,37099.008
2023-10-05T09:23:28.398Z,43409.664
2023-10-05T09:26:32.104Z,43983.36
2023-10-05T09:29:09.880Z,28302.336
2023-10-05T09:31:54.824Z,39585.024
2023-10-05T09:34:32.665Z,27919.872
2023-10-05T09:37:12.127Z,35951.616
2023-10-05T09:39:40.940Z,26963.712
2023-10-05T09:42:12.402Z,37099.008
2023-10-05T09:44:45.168Z,26772.48
2023-10-05T09:47:18.554Z,26581.248
2023-10-05T09:49:50.827Z,29067.264
2023-10-05T09:52:42.273Z,37290.24
2023-10-05T09:55:15.469Z,39585.024
2023-10-05T09:57:53.371Z,38055.168
2023-10-05T10:00:36.645Z,42835.968
2023-10-05T10:03:25.306Z,38055.168
2023-10-05T10:06:02.445Z,39776.256
2023-10-05T10:08:40.751Z,42644.736
2023-10-05T10:11:20.572Z,40349.952
2023-10-05T10:13:57.976Z,19696.896
2023-10-05T10:16:31.120Z,32891.904
2023-10-05T10:19:10.456Z,27919.872
2023-10-05T10:21:48.224Z,44748.288
2023-10-05T10:24:18.597Z,41306.112
2023-10-05T10:26:49.910Z,45513.216
2023-10-05T10:29:20.580Z,37672.704
2023-10-05T10:31:54.582Z,30788.352
2023-10-05T10:34:26.005Z,18645.12
2023-10-05T10:36:59.120Z,20270.592
2023-10-05T10:39:42.381Z,20844.288
2023-10-05T10:42:15.592Z,22182.912
2023-10-05T10:44:48.709Z,19792.512
2023-10-05T10:47:42.255Z,15872.256
2023-10-05T10:50:20.658Z,15585.408
2023-10-05T10:52:53.753Z,17019.648
2023-10-05T10:55:39.130Z,23234.688
2023-10-05T10:58:20.223Z,15202.944
2023-10-05T11:01:08.756Z,12908.16
2023-10-05T11:03:46.899Z,15202.944
2023-10-05T11:06:30.323Z,21417.984
2023-10-05T11:09:01.783Z,26198.784
2023-10-05T11:11:39.814Z,12525.696
2023-10-05T11:14:26.380Z,15489.792
2023-10-05T11:17:04.829Z,15872.256
2023-10-05T11:19:41.318Z,20939.904
2023-10-05T11:22:27.865Z,18262.656
2023-10-05T11:25:26.546Z,18167.04
2023-10-05T11:28:00.343Z,37863.936
2023-10-05T11:30:36.070Z,18453.888
2023-10-05T11:33:24.976Z,18549.504
2023-10-05T11:35:49.347Z,16637.184
2023-10-05T11:38:27.575Z,16828.416
2023-10-05T11:41:05.614Z,19792.512
2023-10-05T11:43:39.892Z,35569.152
2023-10-05T11:46:23.253Z,37863.936
2023-10-05T11:48:56.444Z,37099.008
2023-10-05T11:51:30.889Z,20270.592
2023-10-05T11:54:00.863Z,26007.552
2023-10-05T11:56:33.889Z,20270.592
2023-10-05T11:59:07.238Z,20270.592
2023-10-05T12:01:48.708Z,19505.664
2023-10-05T12:04:21.960Z,18453.888
2023-10-05T12:06:55.428Z,20748.672
2023-10-05T12:09:27.539Z,22278.528
2023-10-05T12:12:00.863Z,32318.208
2023-10-05T12:14:45.090Z,36334.08
2023-10-05T12:17:18.153Z,36525.312
2023-10-05T12:20:12.862Z,28493.568
2023-10-05T12:23:16.586Z,26007.552
2023-10-05T12:26:11.331Z,23234.688
2023-10-05T12:28:49.579Z,18931.968
2023-10-05T12:31:37.010Z,27919.872
2023-10-05T12:34:57.364Z,19983.744
2023-10-05T12:37:28.636Z,20653.056
2023-10-05T12:40:14.372Z,14342.4
2023-10-05T12:43:16.799Z,11473.92
2023-10-05T12:45:42.573Z,13481.856
2023-10-05T12:48:27.346Z,13099.392
2023-10-05T12:51:10.609Z,15489.792
2023-10-05T12:53:48.819Z,15489.792
2023-10-05T12:56:27.144Z,12908.16
2023-10-05T12:59:15.618Z,11330.496
2023-10-05T13:01:48.895Z,10948.032
2023-10-05T13:04:21.910Z,10661.184
2023-10-05T13:07:05.245Z,10469.952
2023-10-05T13:09:38.408Z,10135.296
2023-10-05T13:12:26.835Z,7171.2
2023-10-05T13:15:00.205Z,5043.744
2023-10-05T13:17:33.188Z,5402.304
2023-10-05T13:20:06.340Z,9465.984
2023-10-05T13:23:01.654Z,11282.688
2023-10-05T13:25:43.159Z,14342.4
2023-10-05T13:28:16.240Z,10422.144
2023-10-05T13:30:54.542Z,8509.824
2023-10-05T13:33:32.715Z,6071.616
2023-10-05T13:36:11.007Z,6836.544
2023-10-05T13:38:54.406Z,9944.064
2023-10-05T13:41:47.948Z,8509.824
2023-10-05T13:44:19.425Z,19888.128
2023-10-05T13:46:49.931Z,10517.76
2023-10-05T13:49:43.366Z,9705.024
2023-10-05T13:52:18.251Z,15681.024
2023-10-05T13:54:50.322Z,18358.272
2023-10-05T13:57:23.399Z,12716.928
2023-10-05T14:00:01.701Z,11043.648
2023-10-05T14:02:50.166Z,11234.88
2023-10-05T14:05:23.270Z,13481.856
2023-10-05T14:08:08.993Z,18836.352
2023-10-05T14:10:42.208Z,21991.68
2023-10-05T14:13:21.306Z,15872.256
2023-10-05T14:16:14.737Z,14533.632
2023-10-05T14:19:03.176Z,13290.624
2023-10-05T14:21:51.868Z,12334.464
2023-10-05T14:24:22.913Z,14438.016
2023-10-05T14:27:08.132Z,13195.008
2023-10-05T14:29:51.498Z,9657.216
2023-10-05T14:33:10.533Z,9561.6
2023-10-05T14:36:44.792Z,8318.592
2023-10-05T14:39:23.087Z,8079.552
2023-10-05T14:41:56.497Z,8557.632
2023-10-05T14:44:34.326Z,8796.672
2023-10-05T14:47:09.426Z,8557.632
2023-10-05T14:49:47.559Z,7888.32
2023-10-05T14:53:26.954Z,6023.808
2023-10-05T14:57:52.288Z,5115.456
2023-10-05T15:00:35.563Z,4541.76
2023-10-05T15:03:29.229Z,4135.392
2023-10-05T15:06:07.362Z,3991.968
2023-10-05T15:08:45.589Z,3059.712
2023-10-05T15:11:24.113Z,2844.576
2023-10-05T15:13:57.008Z,2832.624
2023-10-05T15:16:30.257Z,3346.56
2023-10-05T15:19:23.849Z,3561.696
2023-10-05T15:22:17.308Z,3346.56
2023-10-05T15:24:50.469Z,3442.176
2023-10-05T15:27:23.532Z,3107.52
2023-10-05T15:29:56.556Z,2306.736
2023-10-05T15:32:39.829Z,1936.224
2023-10-05T15:35:23.112Z,1565.712
2023-10-05T15:38:42.198Z,1625.472
2023-10-05T15:41:20.538Z,1697.184
2023-10-05T15:43:55.376Z,1744.992
2023-10-05T15:46:57.278Z,1780.848
2023-10-05T15:49:45.718Z,1804.752
2023-10-05T15:52:28.959Z,1756.944
2023-10-05T15:55:12.704Z,1589.616
2023-10-05T15:57:50.531Z,1673.28
2023-10-05T16:00:28.741Z,1864.512
2023-10-05T16:03:22.247Z,1936.224
2023-10-05T16:06:10.646Z,1876.464
2023-10-05T16:08:48.784Z,1709.136
2023-10-05T16:11:27.105Z,1511.928
2023-10-05T16:14:25.618Z,1308.744
2023-10-05T16:17:14.269Z,1141.416
2023-10-05T16:19:57.515Z,1009.944
2023-10-05T16:23:11.324Z,824.688
2023-10-05T16:25:49.509Z,654.372
2023-10-05T16:29:28.837Z,454.176
2023-10-05T16:32:01.870Z,352.584
2023-10-05T16:35:36.129Z,243.522
2023-10-05T16:38:19.368Z,198.702
2023-10-05T16:41:23.023Z,153.135
2023-10-05T16:44:06.251Z,121.761
2023-10-05T16:46:49.574Z,89.64
2023-10-05T16:49:22.712Z,65.736
2023-10-05T16:51:55.695Z,44.446
2023-10-05T16:56:00.862Z,17.928
2023-10-05T17:01:05.187Z,6.723
2023-10-05T17:04:59.919Z,3.735
2023-10-05T17:08:29.108Z,2.241
2023-10-05T17:12:03.355Z,1.12
2023-10-05T17:14:36.420Z,0.373
2023-10-05T17:20:38.637Z,0
